sensor_id;sensor_type;location;lat;lon;timestamp;pressure;altitude;pressure_sealevel;temperature;humidity
84134;BME280;74235;48.688;9.708;2023-11-19T00:00:19;97572.78;;;20.78;56.87
84134;BME280;74235;48.688;9.708;2023-11-19T00:02:47;97568.19;;;20.78;55.42
84134;BME280;74235;48.688;9.708;2023-11-19T00:05:15;97568.97;;;20.79;57.10
84134;BME280;74235;48.688;9.708;2023-11-19T00:07:42;97566.81;;;20.81;56.85
84134;BME280;74235;48.688;9.708;2023-11-19T00:10:10;97559.81;;;20.80;57.13
84134;BME280;74235;48.688;9.708;2023-11-19T00:12:42;97550.91;;;20.79;56.03
84134;BME280;74235;48.688;9.708;2023-11-19T00:15:11;97550.91;;;20.79;56.04
84134;BME280;74235;48.688;9.708;2023-11-19T00:17:40;97553.88;;;20.78;56.18
84134;BME280;74235;48.688;9.708;2023-11-19T00:20:10;97558.19;;;20.79;55.83
84134;BME280;74235;48.688;9.708;2023-11-19T00:22:37;97562.81;;;20.78;56.12
84134;BME280;74235;48.688;9.708;2023-11-19T00:25:15;97549.59;;;20.77;55.76
84134;BME280;74235;48.688;9.708;2023-11-19T00:27:44;97548.75;;;20.76;56.62
84134;BME280;74235;48.688;9.708;2023-11-19T00:30:13;97552.78;;;20.79;55.78
84134;BME280;74235;48.688;9.708;2023-11-19T00:32:41;97556.59;;;20.78;55.42
84134;BME280;74235;48.688;9.708;2023-11-19T00:35:09;97538.78;;;20.77;57.28
84134;BME280;74235;48.688;9.708;2023-11-19T00:37:42;97536.09;;;20.77;57.19
84134;BME280;74235;48.688;9.708;2023-11-19T00:40:11;97541.47;;;20.77;56.88
84134;BME280;74235;48.688;9.708;2023-11-19T00:42:39;97536.09;;;20.77;55.58
84134;BME280;74235;48.688;9.708;2023-11-19T00:45:08;97530.97;;;20.75;55.77
84134;BME280;74235;48.688;9.708;2023-11-19T00:47:38;97531.78;;;20.76;57.14
84134;BME280;74235;48.688;9.708;2023-11-19T00:50:07;97540.38;;;20.78;55.98
84134;BME280;74235;48.688;9.708;2023-11-19T00:52:38;97535.00;;;20.78;55.67
84134;BME280;74235;48.688;9.708;2023-11-19T00:55:06;97531.78;;;20.76;55.67
84134;BME280;74235;48.688;9.708;2023-11-19T00:57:35;97535.28;;;20.76;56.46
84134;BME280;74235;48.688;9.708;2023-11-19T01:00:03;97540.94;;;20.75;56.13
84134;BME280;74235;48.688;9.708;2023-11-19T01:02:39;97527.72;;;20.78;55.51
84134;BME280;74235;48.688;9.708;2023-11-19T01:05:08;97516.38;;;20.76;55.80
84134;BME280;74235;48.688;9.708;2023-11-19T01:07:36;97522.59;;;20.77;56.11
84134;BME280;74235;48.688;9.708;2023-11-19T01:10:05;97518.78;;;20.78;56.32
84134;BME280;74235;48.688;9.708;2023-11-19T01:12:33;97498.94;;;20.69;56.40
84134;BME280;74235;48.688;9.708;2023-11-19T01:15:00;97511.78;;;20.77;55.90
84134;BME280;74235;48.688;9.708;2023-11-19T01:17:30;97509.09;;;20.77;55.19
84134;BME280;74235;48.688;9.708;2023-11-19T01:20:00;97503.69;;;20.77;56.15
84134;BME280;74235;48.688;9.708;2023-11-19T01:22:28;97494.78;;;20.76;57.11
84134;BME280;74235;48.688;9.708;2023-11-19T01:24:55;97504.50;;;20.77;56.64
84134;BME280;74235;48.688;9.708;2023-11-19T01:27:23;97490.19;;;20.77;56.32
84134;BME280;74235;48.688;9.708;2023-11-19T01:29:51;97494.50;;;20.78;55.44
84134;BME280;74235;48.688;9.708;2023-11-19T01:32:18;97491.31;;;20.76;55.26
84134;BME280;74235;48.688;9.708;2023-11-19T01:34:46;97483.22;;;20.76;55.51
84134;BME280;74235;48.688;9.708;2023-11-19T01:37:15;97480.22;;;20.77;55.43
84134;BME280;74235;48.688;9.708;2023-11-19T01:39:43;97473.19;;;20.76;55.88
84134;BME280;74235;48.688;9.708;2023-11-19T01:42:11;97463.22;;;20.77;56.81
84134;BME280;74235;48.688;9.708;2023-11-19T01:44:53;97462.41;;;20.76;55.81
84134;BME280;74235;48.688;9.708;2023-11-19T01:47:21;97457.81;;;20.77;57.17
84134;BME280;74235;48.688;9.708;2023-11-19T01:49:49;97464.31;;;20.76;55.93
84134;BME280;74235;48.688;9.708;2023-11-19T01:52:19;97453.50;;;20.76;56.86
84134;BME280;74235;48.688;9.708;2023-11-19T01:54:47;97453.50;;;20.76;57.01
84134;BME280;74235;48.688;9.708;2023-11-19T01:57:15;97454.03;;;20.78;55.86
84134;BME280;74235;48.688;9.708;2023-11-19T01:59:44;97445.41;;;20.76;57.16
84134;BME280;74235;48.688;9.708;2023-11-19T02:02:12;97438.91;;;20.77;56.51
84134;BME280;74235;48.688;9.708;2023-11-19T02:04:41;97443.00;;;20.74;56.66
84134;BME280;74235;48.688;9.708;2023-11-19T02:07:09;97445.41;;;20.76;56.12
84134;BME280;74235;48.688;9.708;2023-11-19T02:09:38;97448.41;;;20.74;56.45
84134;BME280;74235;48.688;9.708;2023-11-19T02:12:06;97445.41;;;20.76;56.99
84134;BME280;74235;48.688;9.708;2023-11-19T02:14:34;97457.00;;;20.76;55.86
84134;BME280;74235;48.688;9.708;2023-11-19T02:17:02;97450.00;;;20.75;55.52
84134;BME280;74235;48.688;9.708;2023-11-19T02:19:29;97449.72;;;20.77;56.28
84134;BME280;74235;48.688;9.708;2023-11-19T02:21:57;97449.19;;;20.75;57.10
84134;BME280;74235;48.688;9.708;2023-11-19T02:24:26;97435.69;;;20.75;57.11
84134;BME280;74235;48.688;9.708;2023-11-19T02:27:00;97437.31;;;20.76;55.49
84134;BME280;74235;48.688;9.708;2023-11-19T02:29:30;97436.78;;;20.74;56.43
84134;BME280;74235;48.688;9.708;2023-11-19T02:31:58;97440.59;;;20.73;56.12
84134;BME280;74235;48.688;9.708;2023-11-19T02:34:26;97439.50;;;20.74;56.40
84134;BME280;74235;48.688;9.708;2023-11-19T02:36:53;97434.09;;;20.74;56.71
84134;BME280;74235;48.688;9.708;2023-11-19T02:39:21;97442.19;;;20.74;56.69
84134;BME280;74235;48.688;9.708;2023-11-19T02:41:49;97429.78;;;20.73;56.29
84134;BME280;74235;48.688;9.708;2023-11-19T02:44:19;97429.78;;;20.73;56.81
84134;BME280;74235;48.688;9.708;2023-11-19T02:46:48;97442.19;;;20.74;55.12
84134;BME280;74235;48.688;9.708;2023-11-19T02:49:15;97434.63;;;20.76;55.41
84134;BME280;74235;48.688;9.708;2023-11-19T02:51:43;97423.28;;;20.74;57.07
84134;BME280;74235;48.688;9.708;2023-11-19T02:54:10;97426.81;;;20.74;55.86
84134;BME280;74235;48.688;9.708;2023-11-19T02:56:42;97426.00;;;20.74;56.57
84134;BME280;74235;48.688;9.708;2023-11-19T02:59:09;97436.78;;;20.74;56.73
84134;BME280;74235;48.688;9.708;2023-11-19T03:01:56;97433.81;;;20.75;56.61
84134;BME280;74235;48.688;9.708;2023-11-19T03:04:24;97435.69;;;20.75;56.08
84134;BME280;74235;48.688;9.708;2023-11-19T03:06:52;97437.59;;;20.74;55.19
84134;BME280;74235;48.688;9.708;2023-11-19T03:09:20;97437.59;;;20.74;55.27
84134;BME280;74235;48.688;9.708;2023-11-19T03:11:48;97443.78;;;20.75;55.03
84134;BME280;74235;48.688;9.708;2023-11-19T03:14:15;97442.19;;;20.74;56.74
84134;BME280;74235;48.688;9.708;2023-11-19T03:16:44;97438.38;;;20.75;54.97
84134;BME280;74235;48.688;9.708;2023-11-19T03:19:15;97442.19;;;20.74;56.54
84134;BME280;74235;48.688;9.708;2023-11-19T03:21:52;97450.00;;;20.75;55.78
84134;BME280;74235;48.688;9.708;2023-11-19T03:24:21;97452.97;;;20.74;57.05
84134;BME280;74235;48.688;9.708;2023-11-19T03:26:49;97449.19;;;20.75;56.11
84134;BME280;74235;48.688;9.708;2023-11-19T03:29:17;97454.09;;;20.73;57.09
84134;BME280;74235;48.688;9.708;2023-11-19T03:31:45;97460.56;;;20.72;56.98
84134;BME280;74235;48.688;9.708;2023-11-19T03:34:12;97451.38;;;20.73;57.01
84134;BME280;74235;48.688;9.708;2023-11-19T03:36:41;97458.38;;;20.74;56.93
84134;BME280;74235;48.688;9.708;2023-11-19T03:39:10;97451.38;;;20.73;56.74
84134;BME280;74235;48.688;9.708;2023-11-19T03:41:38;97446.78;;;20.73;57.08
84134;BME280;74235;48.688;9.708;2023-11-19T03:44:09;97459.47;;;20.73;56.04
84134;BME280;74235;48.688;9.708;2023-11-19T03:46:36;97455.97;;;20.72;55.72
84134;BME280;74235;48.688;9.708;2023-11-19T03:49:04;97460.25;;;20.73;56.57
84134;BME280;74235;48.688;9.708;2023-11-19T03:51:34;97455.97;;;20.72;56.42
84134;BME280;74235;48.688;9.708;2023-11-19T03:54:03;97454.09;;;20.73;56.78
84134;BME280;74235;48.688;9.708;2023-11-19T03:56:31;97451.38;;;20.73;55.81
84134;BME280;74235;48.688;9.708;2023-11-19T03:58:58;97445.16;;;20.72;55.73
84134;BME280;74235;48.688;9.708;2023-11-19T04:01:26;97448.69;;;20.73;55.57
84134;BME280;74235;48.688;9.708;2023-11-19T04:03:54;97428.97;;;20.72;55.21
84134;BME280;74235;48.688;9.708;2023-11-19T04:06:23;97424.41;;;20.73;56.27
84134;BME280;74235;48.688;9.708;2023-11-19T04:08:51;97431.69;;;20.72;56.13
84134;BME280;74235;48.688;9.708;2023-11-19T04:11:20;97420.09;;;20.72;55.57
84134;BME280;74235;48.688;9.708;2023-11-19T04:13:47;97429.78;;;20.73;55.65
84134;BME280;74235;48.688;9.708;2023-11-19T04:16:15;97431.41;;;20.74;56.78
84134;BME280;74235;48.688;9.708;2023-11-19T04:18:42;97419.50;;;20.75;56.05
84134;BME280;74235;48.688;9.708;2023-11-19T04:21:10;97418.44;;;20.76;56.98
84134;BME280;74235;48.688;9.708;2023-11-19T04:23:38;97406.00;;;20.75;56.27
84134;BME280;74235;48.688;9.708;2023-11-19T04:26:05;97416.00;;;20.74;55.46
84134;BME280;74235;48.688;9.708;2023-11-19T04:28:38;97414.09;;;20.75;55.90
84134;BME280;74235;48.688;9.708;2023-11-19T04:31:06;97422.19;;;20.75;55.67
84134;BME280;74235;48.688;9.708;2023-11-19T04:33:33;97412.50;;;20.74;55.78
84134;BME280;74235;48.688;9.708;2023-11-19T04:36:01;97409.00;;;20.73;57.00
84134;BME280;74235;48.688;9.708;2023-11-19T04:38:29;97391.44;;;20.76;56.49
84134;BME280;74235;48.688;9.708;2023-11-19T04:40:58;97413.03;;;20.76;55.92
84134;BME280;74235;48.688;9.708;2023-11-19T04:43:25;97404.94;;;20.76;57.07
84134;BME280;74235;48.688;9.708;2023-11-19T04:45:54;97405.72;;;20.76;56.69
84134;BME280;74235;48.688;9.708;2023-11-19T04:48:22;97404.13;;;20.75;55.15
84134;BME280;74235;48.688;9.708;2023-11-19T04:50:49;97394.13;;;20.76;56.92
84134;BME280;74235;48.688;9.708;2023-11-19T04:53:18;97410.63;;;20.74;55.43
84134;BME280;74235;48.688;9.708;2023-11-19T04:55:45;97411.41;;;20.75;56.71
84134;BME280;74235;48.688;9.708;2023-11-19T04:58:13;97413.03;;;20.76;56.73
84134;BME280;74235;48.688;9.708;2023-11-19T05:00:40;97402.25;;;20.76;55.22
84134;BME280;74235;48.688;9.708;2023-11-19T05:03:09;97395.22;;;20.75;55.23
84134;BME280;74235;48.688;9.708;2023-11-19T05:05:37;97393.31;;;20.75;55.49
84134;BME280;74235;48.688;9.708;2023-11-19T05:08:04;97395.22;;;20.75;56.79
84134;BME280;74235;48.688;9.708;2023-11-19T05:10:32;97404.13;;;20.75;56.94
84134;BME280;74235;48.688;9.708;2023-11-19T05:13:00;97401.41;;;20.75;55.37
84134;BME280;74235;48.688;9.708;2023-11-19T05:15:27;97406.00;;;20.75;57.07
84134;BME280;74235;48.688;9.708;2023-11-19T05:17:55;97400.59;;;20.75;56.67
84134;BME280;74235;48.688;9.708;2023-11-19T05:20:24;97405.22;;;20.74;55.18
84134;BME280;74235;48.688;9.708;2023-11-19T05:22:51;97403.59;;;20.73;55.73
84134;BME280;74235;48.688;9.708;2023-11-19T05:25:20;97400.09;;;20.73;55.82
84134;BME280;74235;48.688;9.708;2023-11-19T05:27:48;97396.84;;;20.76;56.30
84134;BME280;74235;48.688;9.708;2023-11-19T05:30:15;97393.59;;;20.74;55.04
84134;BME280;74235;48.688;9.708;2023-11-19T05:32:43;97400.59;;;20.75;56.63
84134;BME280;74235;48.688;9.708;2023-11-19T05:35:11;97404.41;;;20.74;55.99
84134;BME280;74235;48.688;9.708;2023-11-19T05:37:40;97403.31;;;20.75;55.38
84134;BME280;74235;48.688;9.708;2023-11-19T05:40:08;97402.81;;;20.73;55.50
84134;BME280;74235;48.688;9.708;2023-11-19T05:42:42;97404.97;;;20.71;56.95
84134;BME280;74235;48.688;9.708;2023-11-19T05:45:11;97410.09;;;20.72;55.67
84134;BME280;74235;48.688;9.708;2023-11-19T05:47:39;97408.50;;;20.71;56.79
84134;BME280;74235;48.688;9.708;2023-11-19T05:50:07;97408.19;;;20.73;55.36
84134;BME280;74235;48.688;9.708;2023-11-19T05:52:35;97404.41;;;20.74;56.83
84134;BME280;74235;48.688;9.708;2023-11-19T05:55:05;97406.59;;;20.72;56.51
84134;BME280;74235;48.688;9.708;2023-11-19T05:57:36;97401.22;;;20.72;56.51
84134;BME280;74235;48.688;9.708;2023-11-19T06:00:13;97406.59;;;20.72;55.84
84134;BME280;74235;48.688;9.708;2023-11-19T06:02:43;97409.31;;;20.72;55.89
84134;BME280;74235;48.688;9.708;2023-11-19T06:05:10;97408.78;;;20.70;56.50
84134;BME280;74235;48.688;9.708;2023-11-19T06:07:38;97419.00;;;20.73;56.22
84134;BME280;74235;48.688;9.708;2023-11-19T06:10:08;97422.78;;;20.72;56.91
84134;BME280;74235;48.688;9.708;2023-11-19T06:12:37;97427.09;;;20.73;57.19
84134;BME280;74235;48.688;9.708;2023-11-19T06:15:06;97420.88;;;20.72;57.10
84134;BME280;74235;48.688;9.708;2023-11-19T06:17:35;97421.69;;;20.73;55.96
84134;BME280;74235;48.688;9.708;2023-11-19T06:20:03;97419.00;;;20.73;55.21
84134;BME280;74235;48.688;9.708;2023-11-19T06:22:32;97422.78;;;20.72;56.78
84134;BME280;74235;48.688;9.708;2023-11-19T06:24:59;97413.06;;;20.71;55.43
84134;BME280;74235;48.688;9.708;2023-11-19T06:27:28;97410.91;;;20.73;56.26
84134;BME280;74235;48.688;9.708;2023-11-19T06:29:56;97413.59;;;20.73;55.44
84134;BME280;74235;48.688;9.708;2023-11-19T06:32:24;97402.00;;;20.72;56.54
84134;BME280;74235;48.688;9.708;2023-11-19T06:34:51;97408.19;;;20.73;56.26
84134;BME280;74235;48.688;9.708;2023-11-19T06:37:18;97399.28;;;20.72;55.69
84134;BME280;74235;48.688;9.708;2023-11-19T06:39:46;97397.41;;;20.73;56.42
84134;BME280;74235;48.688;9.708;2023-11-19T06:42:14;97397.41;;;20.73;56.83
84134;BME280;74235;48.688;9.708;2023-11-19T06:44:43;97392.78;;;20.73;56.09
84134;BME280;74235;48.688;9.708;2023-11-19T06:47:10;97389.03;;;20.74;56.03
84134;BME280;74235;48.688;9.708;2023-11-19T06:49:37;97402.53;;;20.74;55.33
84134;BME280;74235;48.688;9.708;2023-11-19T06:52:05;97421.41;;;20.74;56.03
84134;BME280;74235;48.688;9.708;2023-11-19T06:54:32;97420.59;;;20.74;56.42
84134;BME280;74235;48.688;9.708;2023-11-19T06:57:01;97424.91;;;20.75;55.65
84134;BME280;74235;48.688;9.708;2023-11-19T06:59:30;97429.50;;;20.74;55.69
84134;BME280;74235;48.688;9.708;2023-11-19T07:01:59;97441.91;;;20.75;55.57
84134;BME280;74235;48.688;9.708;2023-11-19T07:04:26;97440.31;;;20.74;55.58
84134;BME280;74235;48.688;9.708;2023-11-19T07:06:54;97438.38;;;20.75;56.72
84134;BME280;74235;48.688;9.708;2023-11-19T07:09:21;97448.41;;;20.74;55.41
84134;BME280;74235;48.688;9.708;2023-11-19T07:11:50;97448.41;;;20.74;55.16
84134;BME280;74235;48.688;9.708;2023-11-19T07:14:21;97443.00;;;20.74;56.94
84134;BME280;74235;48.688;9.708;2023-11-19T07:16:50;97441.38;;;20.73;55.60
84134;BME280;74235;48.688;9.708;2023-11-19T07:19:19;97436.78;;;20.74;55.66
84134;BME280;74235;48.688;9.708;2023-11-19T07:21:46;97446.00;;;20.73;55.59
84134;BME280;74235;48.688;9.708;2023-11-19T07:24:14;97440.59;;;20.73;55.62
84134;BME280;74235;48.688;9.708;2023-11-19T07:26:43;97448.69;;;20.73;56.38
84134;BME280;74235;48.688;9.708;2023-11-19T07:29:11;97463.50;;;20.75;57.25
84134;BME280;74235;48.688;9.708;2023-11-19T07:31:38;97469.19;;;20.74;57.24
84134;BME280;74235;48.688;9.708;2023-11-19T07:34:06;97475.38;;;20.74;55.86
84134;BME280;74235;48.688;9.708;2023-11-19T07:36:35;97473.75;;;20.73;56.13
84134;BME280;74235;48.688;9.708;2023-11-19T07:39:03;97480.25;;;20.72;56.36
84134;BME280;74235;48.688;9.708;2023-11-19T07:41:32;97461.38;;;20.72;57.27
84134;BME280;74235;48.688;9.708;2023-11-19T07:44:00;97466.47;;;20.74;56.13
84134;BME280;74235;48.688;9.708;2023-11-19T07:46:28;97465.38;;;20.75;57.08
84134;BME280;74235;48.688;9.708;2023-11-19T07:48:55;97469.19;;;20.74;56.21
84134;BME280;74235;48.688;9.708;2023-11-19T07:51:22;97467.28;;;20.74;55.63
84134;BME280;74235;48.688;9.708;2023-11-19T07:53:51;97469.19;;;20.74;55.95
84134;BME280;74235;48.688;9.708;2023-11-19T07:56:18;97463.78;;;20.74;57.50
84134;BME280;74235;48.688;9.708;2023-11-19T07:58:46;97463.78;;;20.74;57.07
84134;BME280;74235;48.688;9.708;2023-11-19T08:01:15;97459.97;;;20.75;57.31
84134;BME280;74235;48.688;9.708;2023-11-19T08:03:43;97469.19;;;20.74;57.45
84134;BME280;74235;48.688;9.708;2023-11-19T08:06:25;97470.00;;;20.74;57.12
84134;BME280;74235;48.688;9.708;2023-11-19T08:08:54;97475.38;;;20.74;55.43
84134;BME280;74235;48.688;9.708;2023-11-19T08:11:22;97472.41;;;20.76;56.45
84134;BME280;74235;48.688;9.708;2023-11-19T08:13:49;97480.78;;;20.74;56.19
84134;BME280;74235;48.688;9.708;2023-11-19T08:16:17;97478.88;;;20.75;57.09
84134;BME280;74235;48.688;9.708;2023-11-19T08:18:44;97474.56;;;20.74;57.00
84134;BME280;74235;48.688;9.708;2023-11-19T08:21:12;97467.56;;;20.73;56.44
84134;BME280;74235;48.688;9.708;2023-11-19T08:23:40;97475.38;;;20.74;55.53
84134;BME280;74235;48.688;9.708;2023-11-19T08:26:09;97485.38;;;20.74;55.78
84134;BME280;74235;48.688;9.708;2023-11-19T08:28:37;97472.97;;;20.73;57.53
84134;BME280;74235;48.688;9.708;2023-11-19T08:31:04;97472.16;;;20.72;56.01
84134;BME280;74235;48.688;9.708;2023-11-19T08:33:32;97465.97;;;20.72;55.93
84134;BME280;74235;48.688;9.708;2023-11-19T08:36:00;97466.75;;;20.72;56.25
84134;BME280;74235;48.688;9.708;2023-11-19T08:38:28;97465.97;;;20.72;56.17
84134;BME280;74235;48.688;9.708;2023-11-19T08:40:58;97467.56;;;20.73;56.55
84134;BME280;74235;48.688;9.708;2023-11-19T08:43:29;97466.47;;;20.74;56.14
84134;BME280;74235;48.688;9.708;2023-11-19T08:45:58;97467.28;;;20.74;57.64
84134;BME280;74235;48.688;9.708;2023-11-19T08:48:25;97459.19;;;20.74;55.60
84134;BME280;74235;48.688;9.708;2023-11-19T08:50:53;97462.97;;;20.73;55.97
84134;BME280;74235;48.688;9.708;2023-11-19T08:53:20;97466.47;;;20.74;55.94
84134;BME280;74235;48.688;9.708;2023-11-19T08:55:48;97472.97;;;20.73;56.85
84134;BME280;74235;48.688;9.708;2023-11-19T08:58:17;97468.38;;;20.73;56.36
84134;BME280;74235;48.688;9.708;2023-11-19T09:00:46;97454.09;;;20.73;57.10
84134;BME280;74235;48.688;9.708;2023-11-19T09:03:14;97452.41;;;20.77;55.97
84134;BME280;74235;48.688;9.708;2023-11-19T09:05:42;97454.25;;;20.81;57.46
84134;BME280;74235;48.688;9.708;2023-11-19T09:08:09;97455.81;;;20.87;58.14
84134;BME280;74235;48.688;9.708;2023-11-19T09:10:38;97466.59;;;20.92;57.04
84134;BME280;74235;48.688;9.708;2023-11-19T09:13:06;97467.38;;;20.93;57.01
84134;BME280;74235;48.688;9.708;2023-11-19T09:15:33;97467.91;;;20.95;57.94
84134;BME280;74235;48.688;9.708;2023-11-19T09:18:02;97480.84;;;20.98;57.74
84134;BME280;74235;48.688;9.708;2023-11-19T09:20:30;97484.84;;;21.00;56.92
84134;BME280;74235;48.688;9.708;2023-11-19T09:23:05;97498.84;;;21.02;57.40
84134;BME280;74235;48.688;9.708;2023-11-19T09:25:33;97509.38;;;21.04;56.59
84134;BME280;74235;48.688;9.708;2023-11-19T09:28:03;97502.88;;;21.05;57.90
84134;BME280;74235;48.688;9.708;2023-11-19T09:30:31;97500.25;;;21.00;57.64
84134;BME280;74235;48.688;9.708;2023-11-19T09:33:02;97499.22;;;20.96;56.70
84134;BME280;74235;48.688;9.708;2023-11-19T09:35:30;97509.44;;;20.99;56.67
84134;BME280;74235;48.688;9.708;2023-11-19T09:37:58;97504.78;;;21.04;56.44
84134;BME280;74235;48.688;9.708;2023-11-19T09:40:27;97507.50;;;21.04;58.26
84134;BME280;74235;48.688;9.708;2023-11-19T09:42:56;97499.31;;;21.09;57.75
84134;BME280;74235;48.688;9.708;2023-11-19T09:45:27;97506.56;;;21.14;57.08
84134;BME280;74235;48.688;9.708;2023-11-19T09:47:55;97498.66;;;21.22;58.07
84134;BME280;74235;48.688;9.708;2023-11-19T09:50:26;97501.09;;;21.19;57.67
84134;BME280;74235;48.688;9.708;2023-11-19T09:52:54;97490.09;;;21.15;56.64
84134;BME280;74235;48.688;9.708;2023-11-19T09:55:21;97494.38;;;21.16;57.83
84134;BME280;74235;48.688;9.708;2023-11-19T09:57:50;97493.56;;;21.16;57.79
84134;BME280;74235;48.688;9.708;2023-11-19T10:00:21;97486.28;;;21.16;56.62
84134;BME280;74235;48.688;9.708;2023-11-19T10:02:49;97487.59;;;21.19;57.88
84134;BME280;74235;48.688;9.708;2023-11-19T10:05:19;97491.91;;;21.20;56.91
84134;BME280;74235;48.688;9.708;2023-11-19T10:07:49;97484.91;;;21.19;57.37
84134;BME280;74235;48.688;9.708;2023-11-19T10:10:17;97494.91;;;21.18;58.32
84134;BME280;74235;48.688;9.708;2023-11-19T10:12:46;97488.13;;;21.21;57.87
84134;BME280;74235;48.688;9.708;2023-11-19T10:15:20;97478.38;;;21.20;57.33
84134;BME280;74235;48.688;9.708;2023-11-19T10:17:49;97475.84;;;21.28;58.65
84134;BME280;74235;48.688;9.708;2023-11-19T10:20:17;97478.84;;;21.27;58.75
84134;BME280;74235;48.688;9.708;2023-11-19T10:22:44;97459.72;;;21.23;58.85
84134;BME280;74235;48.688;9.708;2023-11-19T10:25:24;97476.22;;;21.22;57.15
84134;BME280;74235;48.688;9.708;2023-11-19T10:27:53;97470.81;;;21.22;58.45
84134;BME280;74235;48.688;9.708;2023-11-19T10:30:21;97474.34;;;21.22;57.26
84134;BME280;74235;48.688;9.708;2023-11-19T10:33:05;97466.22;;;21.22;56.98
84134;BME280;74235;48.688;9.708;2023-11-19T10:35:33;97472.41;;;21.23;57.46
84134;BME280;74235;48.688;9.708;2023-11-19T10:38:02;97464.31;;;21.23;58.67
84134;BME280;74235;48.688;9.708;2023-11-19T10:40:41;97463.25;;;21.24;57.73
84134;BME280;74235;48.688;9.708;2023-11-19T10:43:09;97457.31;;;21.22;57.52
84134;BME280;74235;48.688;9.708;2023-11-19T10:45:37;97458.63;;;21.24;58.49
84134;BME280;74235;48.688;9.708;2023-11-19T10:48:05;97459.44;;;21.25;58.78
84134;BME280;74235;48.688;9.708;2023-11-19T10:50:34;97455.63;;;21.26;56.83
84134;BME280;74235;48.688;9.708;2023-11-19T10:53:04;97450.25;;;21.26;57.01
84134;BME280;74235;48.688;9.708;2023-11-19T10:55:32;97459.00;;;21.18;57.54
84134;BME280;74235;48.688;9.708;2023-11-19T10:58:04;97449.63;;;21.10;57.37
84134;BME280;74235;48.688;9.708;2023-11-19T11:00:37;97456.69;;;21.06;56.46
84134;BME280;74235;48.688;9.708;2023-11-19T11:03:10;97448.38;;;21.03;56.87
84134;BME280;74235;48.688;9.708;2023-11-19T11:05:38;97459.16;;;21.03;57.83
84134;BME280;74235;48.688;9.708;2023-11-19T11:08:06;97458.63;;;21.01;57.61
84134;BME280;74235;48.688;9.708;2023-11-19T11:10:39;97453.09;;;20.87;55.64
84134;BME280;74235;48.688;9.708;2023-11-19T11:13:26;97454.69;;;20.88;56.75
84134;BME280;74235;48.688;9.708;2023-11-19T11:15:57;97447.38;;;20.94;56.91
84134;BME280;74235;48.688;9.708;2023-11-19T11:18:26;97453.03;;;20.97;56.30
84134;BME280;74235;48.688;9.708;2023-11-19T11:20:56;97443.81;;;20.98;55.14
84134;BME280;74235;48.688;9.708;2023-11-19T11:23:37;97442.44;;;21.01;56.55
84134;BME280;74235;48.688;9.708;2023-11-19T11:26:23;97434.06;;;21.02;55.78
84134;BME280;74235;48.688;9.708;2023-11-19T11:29:01;97437.84;;;21.01;56.71
84134;BME280;74235;48.688;9.708;2023-11-19T11:31:36;97440.28;;;21.03;55.65
84134;BME280;74235;48.688;9.708;2023-11-19T11:34:21;97439.25;;;20.99;56.26
84134;BME280;74235;48.688;9.708;2023-11-19T11:37:00;97446.25;;;21.00;55.62
84134;BME280;74235;48.688;9.708;2023-11-19T11:39:29;97434.34;;;21.01;56.74
84134;BME280;74235;48.688;9.708;2023-11-19T11:42:32;97427.63;;;20.98;56.63
84134;BME280;74235;48.688;9.708;2023-11-19T11:45:04;97437.63;;;20.98;56.05
84134;BME280;74235;48.688;9.708;2023-11-19T11:50:21;97447.63;;;20.97;56.25
84134;BME280;74235;48.688;9.708;2023-11-19T11:53:16;97439.69;;;21.06;56.49
84134;BME280;74235;48.688;9.708;2023-11-19T11:55:54;97432.34;;;21.11;55.45
84134;BME280;74235;48.688;9.708;2023-11-19T11:58:26;97434.97;;;21.16;55.98
84134;BME280;74235;48.688;9.708;2023-11-19T12:00:57;97431.41;;;21.21;56.50
84134;BME280;74235;48.688;9.708;2023-11-19T12:03:27;97435.41;;;21.23;56.53
84134;BME280;74235;48.688;9.708;2023-11-19T12:05:55;97428.13;;;21.24;56.31
84134;BME280;74235;48.688;9.708;2023-11-19T12:08:26;97423.22;;;21.26;56.37
84134;BME280;74235;48.688;9.708;2023-11-19T12:10:55;97419.13;;;21.28;55.01
84134;BME280;74235;48.688;9.708;2023-11-19T12:13:42;97414.25;;;21.30;56.14
84134;BME280;74235;48.688;9.708;2023-11-19T12:16:14;97417.25;;;21.29;57.49
84134;BME280;74235;48.688;9.708;2023-11-19T12:18:42;97422.81;;;21.37;57.67
84134;BME280;74235;48.688;9.708;2023-11-19T12:21:09;97410.47;;;21.50;58.61
84134;BME280;74235;48.688;9.708;2023-11-19T12:23:47;97400.97;;;21.52;57.26
84134;BME280;74235;48.688;9.708;2023-11-19T12:26:31;97409.38;;;21.51;58.09
84134;BME280;74235;48.688;9.708;2023-11-19T12:28:59;97406.97;;;21.49;58.20
84134;BME280;74235;48.688;9.708;2023-11-19T12:31:29;97397.38;;;21.57;57.50
84134;BME280;74235;48.688;9.708;2023-11-19T12:33:56;97389.34;;;21.52;56.05
84134;BME280;74235;48.688;9.708;2023-11-19T12:36:27;97390.94;;;21.53;56.67
84134;BME280;74235;48.688;9.708;2023-11-19T12:38:54;97396.97;;;21.50;57.51
84134;BME280;74235;48.688;9.708;2023-11-19T12:41:22;97391.31;;;21.46;57.42
84134;BME280;74235;48.688;9.708;2023-11-19T12:43:50;97389.94;;;21.49;57.79
84134;BME280;74235;48.688;9.708;2023-11-19T12:46:19;97382.94;;;21.48;55.71
84134;BME280;74235;48.688;9.708;2023-11-19T12:48:49;97389.44;;;21.47;56.10
84134;BME280;74235;48.688;9.708;2023-11-19T12:51:17;97388.34;;;21.48;57.65
84134;BME280;74235;48.688;9.708;2023-11-19T12:53:48;97394.75;;;21.52;57.54
84134;BME280;74235;48.688;9.708;2023-11-19T12:56:16;97385.34;;;21.49;56.25
84134;BME280;74235;48.688;9.708;2023-11-19T12:58:43;97379.66;;;21.51;56.04
84134;BME280;74235;48.688;9.708;2023-11-19T13:01:16;97372.66;;;21.50;56.00
84134;BME280;74235;48.688;9.708;2023-11-19T13:03:43;97372.13;;;21.48;56.38
84134;BME280;74235;48.688;9.708;2023-11-19T13:06:13;97372.56;;;21.55;57.73
84134;BME280;74235;48.688;9.708;2023-11-19T13:08:43;97372.19;;;21.61;58.71
84134;BME280;74235;48.688;9.708;2023-11-19T13:11:12;97373.06;;;21.75;58.06
84134;BME280;74235;48.688;9.708;2023-11-19T13:13:55;97366.69;;;21.66;56.86